KBVY/BVY METAR and TAF weather

Enter ICAO airport designator
Station Type Date Time Source
KBVY METAR 2019/02/23 01:53 UTC NOAA

KBVY 230153Z AUTO 31004KT 10SM CLR 02/M07 A3038 RMK AO2 SLP286 T00171072


Station Type Date Time Source
KBVY Decoded METAR 2019/02/23 01:53 UTC NOAA

BEVERLY MUNICIPAL AIRPORT, MA, United States (KBVY) 42-35N 070-55W 28M
Feb 22, 2019 - 08:53 PM EST / 2019.02.23 0153 UTC
Wind: from the NW (310 degrees) at 5 MPH (4 KT):0
Visibility: 10 mile(s):0
Sky conditions: clear
Temperature: 35.1 F (1.7 C)
Dew Point: 19.0 F (-7.2 C)
Relative Humidity: 51%
Pressure (altimeter): 30.38 in. Hg (1028 hPa)
ob: KBVY 230153Z AUTO 31004KT 10SM CLR 02/M07 A3038 RMK AO2 SLP286 T00171072
cycle: 2

Station Type Date Time Source
KBVY TAF UTC NOAA

Error!


Example: see airport list